Time;durP1;ratioP1;P1;durP2;ratioP2;P2;SDS_P1;SDS_P2;PMS_P1;PMS_P2;Temp;Humidity;BMP_temperature;BMP_pressure;BME280_temperature;BME280_humidity;BME280_pressure;Samples;Min_cycle;Max_cycle;Signal;HPM_P1;HPM_P2
2022/09/11 00:01:26;;;;;;;1.98;0.70;;;;;;;15.20;100.00;100246.09;7390850;19;20348;-56
2022/09/11 00:03:53;;;;;;;4.28;0.52;;;;;;;15.09;100.00;100248.81;7390196;19;20345;-56
2022/09/11 00:06:20;;;;;;;1.27;0.93;;;;;;;14.98;100.00;100248.75;7389880;19;20011;-56
2022/09/11 00:08:48;;;;;;;0.90;0.68;;;;;;;14.97;100.00;100252.03;7389404;19;20022;-56
2022/09/11 00:11:17;;;;;;;0.35;0.35;;;;;;;14.92;100.00;100250.69;7393968;19;20019;-56
2022/09/11 00:13:45;;;;;;;1.05;0.38;;;;;;;14.95;100.00;100249.72;7389532;19;20459;-56
2022/09/11 00:16:28;;;;;;;0.55;0.43;;;;;;;15.06;100.00;100247.00;7389859;19;20015;-56
2022/09/11 00:18:58;;;;;;;0.88;0.70;;;;;;;15.13;100.00;100243.00;7390675;19;20030;-56
2022/09/11 00:21:25;;;;;;;3.80;0.40;;;;;;;15.01;100.00;100250.53;7389244;19;20007;-56
2022/09/11 00:23:52;;;;;;;1.88;0.70;;;;;;;14.92;100.00;100256.31;7392103;19;20015;-56
2022/09/11 00:26:19;;;;;;;0.32;0.32;;;;;;;14.97;100.00;100246.41;7387662;19;20102;-56
2022/09/11 00:28:46;;;;;;;0.73;0.73;;;;;;;14.98;100.00;100247.97;7388541;19;20014;-56
2022/09/11 00:31:16;;;;;;;1.40;0.85;;;;;;;14.92;100.00;100249.94;7388283;19;20019;-56
2022/09/11 00:33:43;;;;;;;0.40;0.40;;;;;;;14.95;100.00;100243.34;7389995;19;20011;-56
2022/09/11 00:36:15;;;;;;;0.77;0.47;;;;;;;14.88;100.00;100243.78;7393018;19;20098;-56
2022/09/11 00:38:41;;;;;;;2.40;0.47;;;;;;;14.82;100.00;100235.31;7389107;19;20014;-56
2022/09/11 00:41:13;;;;;;;0.90;0.47;;;;;;;14.85;100.00;100237.16;7392254;19;20391;-56
2022/09/11 00:44:15;;;;;;;14.52;0.80;;;;;;;14.77;100.00;100227.63;7388327;19;20657;-56
2022/09/11 00:46:54;;;;;;;0.43;0.40;;;;;;;14.74;100.00;100241.88;7385432;19;20006;-56
2022/09/11 00:49:31;;;;;;;0.22;0.22;;;;;;;14.72;100.00;100233.19;7388347;19;20434;-56
2022/09/11 00:52:03;;;;;;;0.95;0.82;;;;;;;14.60;100.00;100228.72;7397162;19;20324;-56
2022/09/11 00:54:34;;;;;;;0.75;0.60;;;;;;;14.57;100.00;100230.50;7398204;19;20014;-56
2022/09/11 00:57:05;;;;;;;0.30;0.30;;;;;;;14.54;100.00;100225.88;7394800;19;20035;-56
2022/09/11 00:59:32;;;;;;;0.98;0.63;;;;;;;14.63;100.00;100227.72;7394820;19;20014;-56
2022/09/11 01:01:59;;;;;;;2.78;0.60;;;;;;;14.61;100.00;100222.63;7396079;19;20019;-56
2022/09/11 01:04:28;;;;;;;0.90;0.50;;;;;;;14.54;100.00;100228.66;7396994;19;20021;-56
2022/09/11 01:06:56;;;;;;;0.40;0.40;;;;;;;14.50;100.00;100224.53;7396376;19;20006;-56
2022/09/11 01:09:25;;;;;;;0.63;0.40;;;;;;;14.41;100.00;100228.28;7392428;19;20007;-56
2022/09/11 01:12:07;;;;;;;1.33;0.65;;;;;;;14.30;100.00;100226.13;7396759;19;20010;-56
2022/09/11 01:15:05;;;;;;;1.58;0.65;;;;;;;14.26;100.00;100233.16;7397203;19;20346;-56
2022/09/11 01:17:40;;;;;;;2.00;0.40;;;;;;;14.26;100.00;100227.56;7396098;19;20011;-56
2022/09/11 01:20:18;;;;;;;1.75;0.63;;;;;;;14.38;100.00;100229.25;7395773;19;20011;-56
2022/09/11 01:23:03;;;;;;;2.28;0.52;;;;;;;14.40;100.00;100221.13;7396151;19;20335;-56
2022/09/11 01:25:41;;;;;;;0.43;0.43;;;;;;;14.38;100.00;100220.84;7397319;19;20021;-56
2022/09/11 01:28:14;;;;;;;0.28;0.28;;;;;;;14.26;100.00;100227.56;7394676;19;20030;-56
2022/09/11 01:30:46;;;;;;;1.02;0.50;;;;;;;14.11;100.00;100221.25;7393964;19;20034;-56
2022/09/11 01:33:27;;;;;;;2.05;0.70;;;;;;;14.05;100.00;100228.84;7393910;19;20018;-56
2022/09/11 01:36:12;;;;;;;;;;;;;;;14.05;100.00;100234.44;7398996;19;20014;-56
2022/09/11 01:38:55;;;;;;;0.10;0.10;;;;;;;14.02;100.00;100224.97;7395026;19;20320;-56
2022/09/11 01:42:05;;;;;;;0.90;0.77;;;;;;;14.02;100.00;100221.41;7398121;19;20014;-56
2022/09/11 01:44:41;;;;;;;0.90;0.90;;;;;;;13.98;100.00;100224.44;7392242;19;20010;-56
2022/09/11 01:47:11;;;;;;;0.93;0.43;;;;;;;14.04;100.00;100222.47;7391744;19;20013;-57
2022/09/11 01:49:49;;;;;;;0.70;0.28;;;;;;;13.95;100.00;100224.63;7390659;19;20082;-56
2022/09/11 01:52:19;;;;;;;0.20;0.20;;;;;;;13.83;100.00;100217.34;7392668;19;20010;-56
2022/09/11 01:54:52;;;;;;;1.98;0.65;;;;;;;13.82;100.00;100218.63;7394415;19;20021;-56
2022/09/11 01:57:41;;;;;;;1.85;0.52;;;;;;;13.83;100.00;100220.13;7393077;19;20014;-56
2022/09/11 02:00:10;;;;;;;2.10;0.50;;;;;;;13.83;100.00;100222.94;7392599;19;20034;-56
2022/09/11 02:02:52;;;;;;;0.30;0.30;;;;;;;13.92;100.00;100225.63;7393639;19;20011;-56
2022/09/11 02:05:31;;;;;;;0.38;0.35;;;;;;;13.98;100.00;100218.81;7396317;19;20382;-56
2022/09/11 02:08:05;;;;;;;2.22;2.05;;;;;;;13.91;100.00;100216.44;7392962;19;20007;-56
2022/09/11 02:10:41;;;;;;;0.80;0.55;;;;;;;13.91;100.00;100212.84;7394270;19;20418;-56
2022/09/11 02:13:20;;;;;;;0.55;0.43;;;;;;;13.86;100.00;100213.56;7393174;19;20019;-56
2022/09/11 02:15:54;;;;;;;0.20;0.20;;;;;;;13.78;100.00;100216.00;7395040;19;20029;-56
2022/09/11 02:18:32;;;;;;;2.53;0.90;;;;;;;13.84;100.00;100213.31;7392101;19;20739;-56
2022/09/11 02:20:58;;;;;;;1.25;0.90;;;;;;;13.86;100.00;100217.13;7394081;19;20331;-56
2022/09/11 02:23:24;;;;;;;0.30;0.30;;;;;;;13.80;100.00;100213.50;7394900;19;20031;-56
2022/09/11 02:25:52;;;;;;;0.68;0.43;;;;;;;13.77;100.00;100208.09;7396592;19;20023;-56
2022/09/11 02:28:19;;;;;;;0.47;0.47;;;;;;;13.90;100.00;100205.75;7389884;19;20045;-56
2022/09/11 02:30:45;;;;;;;0.50;0.50;;;;;;;14.00;100.00;100209.94;7392103;19;20031;-56
2022/09/11 02:33:35;;;;;;;0.50;0.50;;;;;;;13.96;100.00;100209.38;7391306;19;20023;-56
2022/09/11 02:36:19;;;;;;;0.53;0.53;;;;;;;13.77;100.00;100208.88;7395797;19;20011;-56
2022/09/11 02:39:07;;;;;;;1.45;0.90;;;;;;;13.87;100.00;100206.69;7392029;19;20014;-56
2022/09/11 02:41:50;;;;;;;1.65;1.17;;;;;;;13.90;100.00;100206.50;7391305;19;20536;-56
2022/09/11 02:44:47;;;;;;;0.30;0.22;;;;;;;13.81;100.00;100208.66;7392180;19;20530;-56
2022/09/11 02:47:31;;;;;;;0.50;0.50;;;;;;;13.77;100.00;100208.09;7390757;19;20075;-56
2022/09/11 02:50:17;;;;;;;0.75;0.65;;;;;;;13.71;100.00;100199.63;7388493;19;20010;-56
2022/09/11 02:53:02;;;;;;;0.32;0.32;;;;;;;13.68;100.00;100201.38;7390751;19;20010;-56
2022/09/11 02:55:54;;;;;;;0.65;0.57;;;;;;;13.53;100.00;100197.09;7396457;19;20038;-56
2022/09/11 02:58:25;;;;;;;0.50;0.22;;;;;;;13.56;100.00;100199.69;7390556;19;20416;-56
2022/09/11 03:00:55;;;;;;;0.65;0.65;;;;;;;13.61;100.00;100190.59;7390334;19;20011;-56
2022/09/11 03:03:21;;;;;;;20.05;1.00;;;;;;;13.61;100.00;100196.19;7392563;19;20024;-56
2022/09/11 03:05:47;;;;;;;0.20;0.20;;;;;;;13.68;100.00;100195.03;7393333;19;20020;-56
2022/09/11 03:08:18;;;;;;;0.28;0.28;;;;;;;13.74;100.00;100189.47;7391445;19;20391;-56
2022/09/11 03:10:45;;;;;;;0.67;0.63;;;;;;;13.77;100.00;100189.28;7393416;19;20034;-56
2022/09/11 03:13:13;;;;;;;3.85;0.75;;;;;;;13.71;100.00;100188.44;7388628;19;20074;-56
2022/09/11 03:15:43;;;;;;;7.93;0.70;;;;;;;13.55;100.00;100192.56;7393600;19;20042;-56
2022/09/11 03:18:13;;;;;;;1.52;1.20;;;;;;;13.51;100.00;100194.78;7390778;19;20034;-56
2022/09/11 03:20:42;;;;;;;0.50;0.50;;;;;;;13.60;100.00;100188.28;7391856;19;20348;-56
2022/09/11 03:23:09;;;;;;;3.22;0.40;;;;;;;13.62;100.00;100191.38;7390766;19;20016;-56
2022/09/11 03:25:36;;;;;;;1.13;0.30;;;;;;;13.62;100.00;100192.13;7393865;19;20019;-56
2022/09/11 03:28:03;;;;;;;14.20;1.35;;;;;;;13.58;100.00;100193.59;7390408;19;20388;-56
2022/09/11 03:30:32;;;;;;;0.65;0.30;;;;;;;13.50;100.00;100195.25;7391808;19;20010;-56
2022/09/11 03:32:59;;;;;;;0.52;0.47;;;;;;;13.57;100.00;100186.47;7389326;19;20477;-56
2022/09/11 03:35:26;;;;;;;0.60;0.60;;;;;;;13.54;100.00;100191.00;7392567;19;20011;-56
2022/09/11 03:37:54;;;;;;;0.65;0.60;;;;;;;13.72;100.00;100184.38;7389982;19;20014;-56
2022/09/11 03:40:21;;;;;;;1.33;0.93;;;;;;;13.76;100.00;100178.56;7390723;19;20014;-56
2022/09/11 03:42:47;;;;;;;2.55;0.40;;;;;;;13.72;100.00;100175.22;7390242;19;20017;-56
2022/09/11 03:45:13;;;;;;;1.55;0.30;;;;;;;13.76;100.00;100178.56;7392598;19;20532;-56
2022/09/11 03:47:40;;;;;;;0.75;0.65;;;;;;;13.76;100.00;100172.97;7389652;19;20033;-56
2022/09/11 03:50:08;;;;;;;1.42;0.40;;;;;;;13.62;100.00;100169.75;7389933;19;20031;-56
2022/09/11 03:52:35;;;;;;;2.72;1.15;;;;;;;13.65;100.00;100174.38;7390800;19;20015;-56
2022/09/11 03:55:03;;;;;;;1.08;0.52;;;;;;;13.66;100.00;100167.50;7391624;19;20014;-56
2022/09/11 03:57:34;;;;;;;0.40;0.40;;;;;;;13.68;100.00;100162.22;7387769;19;20086;-56
2022/09/11 04:00:01;;;;;;;0.53;0.50;;;;;;;13.66;100.00;100170.28;7387445;19;20022;-56
2022/09/11 04:02:33;;;;;;;1.50;0.38;;;;;;;13.62;100.00;100157.78;7390596;19;20066;-56
2022/09/11 04:04:59;;;;;;;0.30;0.30;;;;;;;13.43;100.00;100151.69;7391178;19;20019;-56
2022/09/11 04:07:25;;;;;;;1.75;0.32;;;;;;;12.87;100.00;100160.47;7388088;19;20007;-56
2022/09/11 04:09:52;;;;;;;2.03;0.73;;;;;;;13.01;100.00;100162.47;7389300;19;20010;-56
2022/09/11 04:12:18;;;;;;;0.80;0.80;;;;;;;13.14;100.00;100162.19;7390114;19;20101;-56
2022/09/11 04:14:45;;;;;;;0.95;0.75;;;;;;;13.14;100.00;100160.16;7391090;19;20022;-56
2022/09/11 04:17:11;;;;;;;2.15;1.33;;;;;;;13.11;100.00;100155.53;7388374;19;20079;-56
2022/09/11 04:19:38;;;;;;;1.10;1.10;;;;;;;13.14;100.00;100157.38;7387704;19;20014;-56
2022/09/11 04:22:04;;;;;;;2.97;0.70;;;;;;;13.16;100.00;100159.69;7389910;19;20022;-55
2022/09/11 04:24:35;;;;;;;0.75;0.63;;;;;;;13.20;100.00;100161.03;7393204;19;20021;-56
2022/09/11 04:27:01;;;;;;;3.83;1.77;;;;;;;13.21;100.00;100159.75;7390221;19;20034;-55
2022/09/11 04:29:28;;;;;;;1.65;0.75;;;;;;;13.20;100.00;100161.03;7387637;19;20015;-56
2022/09/11 04:31:56;;;;;;;8.25;0.98;;;;;;;13.34;100.00;100159.44;7386826;19;20014;-56
2022/09/11 04:34:26;;;;;;;1.02;0.70;;;;;;;13.42;100.00;100150.16;7387451;19;20007;-56
2022/09/11 04:36:54;;;;;;;0.77;0.75;;;;;;;13.40;100.00;100151.91;7388897;19;20025;-56
2022/09/11 04:39:21;;;;;;;0.25;0.22;;;;;;;13.41;100.00;100154.19;7386703;19;20117;-56
2022/09/11 04:41:48;;;;;;;1.17;0.68;;;;;;;13.37;100.00;100153.63;7387840;19;20007;-56
2022/09/11 04:44:15;;;;;;;0.20;0.20;;;;;;;13.48;100.00;100156.59;7389001;19;20007;-56
2022/09/11 04:46:44;;;;;;;0.73;0.68;;;;;;;13.48;100.00;100144.63;7387849;19;20019;-56
2022/09/11 04:49:10;;;;;;;0.70;0.70;;;;;;;13.32;100.00;100145.94;7390097;19;20010;-56
2022/09/11 04:51:39;;;;;;;4.32;1.25;;;;;;;13.29;100.00;100146.13;7387067;19;20018;-56
2022/09/11 04:54:12;;;;;;;1.27;1.20;;;;;;;13.29;100.00;100143.34;7388634;19;20031;-56
2022/09/11 04:56:38;;;;;;;1.52;1.33;;;;;;;13.20;100.00;100149.06;7389182;19;20478;-56
2022/09/11 04:59:14;;;;;;;0.60;0.28;;;;;;;13.24;100.00;100141.22;7386048;19;20007;-56
2022/09/11 05:01:45;;;;;;;0.47;0.25;;;;;;;13.27;100.00;100141.03;7387198;19;20015;-56
2022/09/11 05:04:14;;;;;;;1.05;0.93;;;;;;;13.34;100.00;100137.81;7387732;19;20003;-56
2022/09/11 05:06:44;;;;;;;1.80;1.15;;;;;;;13.42;100.00;100136.16;7386360;19;20110;-56
2022/09/11 05:09:14;;;;;;;0.57;0.57;;;;;;;13.37;100.00;100136.84;7385890;19;20056;-56
2022/09/11 05:11:41;;;;;;;0.47;0.45;;;;;;;13.31;100.00;100138.81;7386768;19;20017;-56
2022/09/11 05:14:08;;;;;;;2.40;0.50;;;;;;;13.37;100.00;100136.84;7387024;19;20010;-56
2022/09/11 05:16:36;;;;;;;0.85;0.85;;;;;;;13.04;100.00;100139.13;7387134;19;20015;-56
2022/09/11 05:19:04;;;;;;;1.63;0.55;;;;;;;12.87;100.00;100141.66;7386276;19;20468;-56
2022/09/11 05:21:33;;;;;;;0.30;0.30;;;;;;;13.16;100.00;100132.50;7385763;19;20014;-56
2022/09/11 05:24:01;;;;;;;0.95;0.93;;;;;;;12.64;100.00;100141.78;7389677;19;20455;-56
2022/09/11 05:26:31;;;;;;;0.45;0.45;;;;;;;13.11;100.00;100140.78;7384925;19;20027;-56
2022/09/11 05:29:01;;;;;;;0.65;0.63;;;;;;;12.96;100.00;100132.41;7385618;19;20107;-56
2022/09/11 05:31:30;;;;;;;0.43;0.43;;;;;;;12.81;100.00;100146.41;7386319;19;20467;-56
2022/09/11 05:34:02;;;;;;;0.47;0.20;;;;;;;13.05;100.00;100142.72;7387042;19;20491;-56
2022/09/11 05:36:32;;;;;;;0.30;0.30;;;;;;;12.97;100.00;100136.75;7391313;19;20010;-56
2022/09/11 05:38:59;;;;;;;1.27;1.15;;;;;;;12.81;100.00;100138.03;7392556;19;20023;-56
2022/09/11 05:41:25;;;;;;;3.90;0.90;;;;;;;12.82;100.00;100144.41;7397677;19;20013;-56
2022/09/11 05:43:52;;;;;;;0.75;0.70;;;;;;;12.75;100.00;100141.97;7392547;19;20015;-56
2022/09/11 05:46:19;;;;;;;0.77;0.45;;;;;;;12.68;100.00;100147.97;7393425;19;20351;-56
2022/09/11 05:48:48;;;;;;;0.28;0.28;;;;;;;12.74;100.00;100144.00;7394565;19;20098;-56
2022/09/11 05:51:20;;;;;;;3.70;0.40;;;;;;;12.93;100.00;100150.91;7393464;19;20042;-56
2022/09/11 05:53:52;;;;;;;0.38;0.38;;;;;;;13.08;100.00;100145.31;7393711;19;20015;-56
2022/09/11 05:56:20;;;;;;;;;;;;;;;13.18;100.00;100152.34;7393055;19;20010;-56
2022/09/11 05:58:47;;;;;;;4.38;0.98;;;;;;;13.17;100.00;100150.00;7391535;19;19919;-56
2022/09/11 06:01:18;;;;;;;0.45;0.45;;;;;;;13.22;100.00;100152.13;7392775;19;20018;-56
2022/09/11 06:03:49;;;;;;;0.80;0.80;;;;;;;13.26;100.00;100153.47;7392090;19;20015;-55
2022/09/11 06:06:20;;;;;;;2.83;2.08;;;;;;;13.22;100.00;100152.91;7393125;19;20018;-56
2022/09/11 06:08:48;;;;;;;0.65;0.65;;;;;;;13.22;100.00;100146.53;7392970;19;20069;-55
2022/09/11 06:11:16;;;;;;;5.78;0.73;;;;;;;13.18;100.00;100146.75;7397256;19;20498;-56
2022/09/11 06:13:47;;;;;;;0.80;0.75;;;;;;;13.28;100.00;100144.59;7392943;19;20417;-57
2022/09/11 06:16:19;;;;;;;2.40;1.40;;;;;;;13.29;100.00;100141.31;7392418;19;20035;-57
2022/09/11 06:18:49;;;;;;;7.70;1.52;;;;;;;13.26;100.00;100147.09;7397441;19;20785;-57
2022/09/11 06:21:19;;;;;;;4.15;1.77;;;;;;;13.30;100.00;100137.25;7392199;19;20473;-56
2022/09/11 06:23:56;;;;;;;1.33;1.23;;;;;;;13.25;100.00;100137.97;7394675;19;20014;-57
2022/09/11 06:26:25;;;;;;;1.15;1.05;;;;;;;13.46;100.00;100150.72;7392524;19;20017;-57
2022/09/11 06:28:52;;;;;;;0.60;0.60;;;;;;;13.65;100.00;100146.38;7392466;19;20016;-56
2022/09/11 06:31:21;;;;;;;0.57;0.57;;;;;;;13.81;100.00;100147.06;7391651;19;20336;-56
2022/09/11 06:33:50;;;;;;;1.48;1.08;;;;;;;13.74;100.00;100153.88;7391851;19;20014;-56
2022/09/11 06:36:26;;;;;;;1.85;0.32;;;;;;;13.83;100.00;100162.13;7392576;19;20037;-56
2022/09/11 06:38:55;;;;;;;2.35;0.73;;;;;;;13.96;100.00;100158.97;7390323;19;20101;-56
2022/09/11 06:41:24;;;;;;;1.25;0.40;;;;;;;14.09;100.00;100162.19;7393999;19;20013;-56
2022/09/11 06:43:53;;;;;;;6.93;1.33;;;;;;;14.02;100.00;100157.00;7390596;19;20463;-56
2022/09/11 06:46:21;;;;;;;4.50;1.15;;;;;;;14.09;100.00;100164.97;7390961;19;20338;-56
2022/09/11 06:48:49;;;;;;;0.68;0.68;;;;;;;14.15;100.00;100166.56;7392216;19;20499;-56
2022/09/11 06:51:19;;;;;;;11.30;1.92;;;;;;;14.30;100.00;100172.09;7392561;19;20023;-56
2022/09/11 06:53:54;;;;;;;1.05;0.80;;;;;;;14.44;100.00;100171.25;7391589;19;20029;-56
2022/09/11 06:56:21;;;;;;;4.60;1.83;;;;;;;14.58;100.00;100181.56;7392360;19;20015;-56
2022/09/11 06:58:47;;;;;;;4.85;0.82;;;;;;;14.72;100.00;100166.66;7390968;19;20011;-56
2022/09/11 07:01:15;;;;;;;1.08;0.40;;;;;;;14.86;100.00;100173.41;7395697;19;20007;-56
2022/09/11 07:03:49;;;;;;;1.20;0.80;;;;;;;15.00;100.00;100161.28;7394051;19;20011;-56
2022/09/11 07:06:18;;;;;;;1.67;1.48;;;;;;;15.20;100.00;100167.53;7393546;19;20369;-56
2022/09/11 07:08:51;;;;;;;6.47;1.20;;;;;;;15.35;100.00;100164.59;7393733;19;20033;-56
2022/09/11 07:11:18;;;;;;;0.82;0.82;;;;;;;15.37;100.00;100155.66;7394991;19;20018;-56
2022/09/11 07:13:45;;;;;;;3.90;1.25;;;;;;;15.62;100.00;100155.59;7393447;19;20037;-56
2022/09/11 07:16:12;;;;;;;5.50;1.15;;;;;;;15.85;100.00;100157.22;7389789;19;20014;-56
2022/09/11 07:18:45;;;;;;;2.05;0.88;;;;;;;16.00;100.00;100157.03;7388239;19;20015;-56
2022/09/11 07:21:20;;;;;;;2.05;0.80;;;;;;;16.30;100.00;100155.31;7389527;19;20018;-56
2022/09/11 07:23:53;;;;;;;6.18;1.98;;;;;;;16.50;100.00;100155.13;7392955;19;20102;-56
2022/09/11 07:26:21;;;;;;;6.22;2.05;;;;;;;16.60;100.00;100150.81;7389877;19;20014;-56
2022/09/11 07:28:51;;;;;;;1.50;1.40;;;;;;;16.79;100.00;100147.47;7388700;19;20460;-56
2022/09/11 07:31:23;;;;;;;2.42;2.22;;;;;;;16.97;100.00;100147.72;7390027;19;20011;-56
2022/09/11 07:33:51;;;;;;;2.58;1.58;;;;;;;17.20;100.00;100146.41;7388890;19;20015;-56
2022/09/11 07:36:24;;;;;;;4.47;1.40;;;;;;;17.47;100.00;100144.84;7389040;19;20007;-56
2022/09/11 07:38:52;;;;;;;10.02;2.08;;;;;;;17.73;100.00;100138.88;7388907;19;20027;-56
2022/09/11 07:41:21;;;;;;;8.07;1.67;;;;;;;17.87;100.00;100132.16;7393816;19;20062;-56
2022/09/11 07:44:02;;;;;;;3.63;1.42;;;;;;;18.10;100.00;100139.97;7389680;19;20430;-56
2022/09/11 07:46:30;;;;;;;13.02;2.05;;;;;;;18.27;100.00;100150.41;7388952;19;20519;-56
2022/09/11 07:49:01;;;;;;;2.15;1.30;;;;;;;18.39;100.00;100141.34;7389267;19;20007;-56
2022/09/11 07:51:28;;;;;;;9.00;2.05;;;;;;;18.34;100.00;100147.03;7388479;19;20038;-56
2022/09/11 07:53:58;;;;;;;3.72;1.42;;;;;;;18.32;100.00;100155.25;7389257;19;20368;-56
2022/09/11 07:56:29;;;;;;;13.43;1.77;;;;;;;18.42;100.00;100145.19;7388549;19;20021;-56
2022/09/11 07:58:58;;;;;;;5.20;1.95;;;;;;;18.54;100.00;100141.03;7386452;19;20023;-56
2022/09/11 08:01:28;;;;;;;6.05;1.60;;;;;;;18.57;100.00;100137.94;7388988;19;20011;-56
2022/09/11 08:04:06;;;;;;;8.82;1.92;;;;;;;18.52;100.00;100123.84;7388786;19;20010;-56
2022/09/11 08:06:36;;;;;;;7.38;1.42;;;;;;;18.61;100.00;100129.19;7388988;19;20033;-56
2022/09/11 08:09:08;;;;;;;1.98;1.35;;;;;;;18.82;100.00;100130.28;7390290;19;20014;-56
2022/09/11 08:11:41;;;;;;;10.27;1.80;;;;;;;18.95;100.00;100130.44;7389738;19;20006;-56
2022/09/11 08:14:10;;;;;;;5.72;1.58;;;;;;;18.91;100.00;100129.97;7392185;19;20002;-56
2022/09/11 08:16:36;;;;;;;6.57;1.42;;;;;;;18.93;100.00;100124.53;7392438;19;20006;-56
2022/09/11 08:19:04;;;;;;;4.82;1.35;;;;;;;18.98;100.00;100126.56;7391277;19;20434;-56
2022/09/11 08:21:30;;;;;;;9.88;1.98;;;;;;;19.10;100.00;100122.34;7391989;19;20033;-56
2022/09/11 08:23:57;;;;;;;4.97;1.20;;;;;;;19.10;100.00;100124.41;7390585;19;20027;-56
2022/09/11 08:26:27;;;;;;;4.47;1.40;;;;;;;19.28;100.00;100120.88;7393886;19;20010;-56
2022/09/11 08:28:55;;;;;;;3.33;1.65;;;;;;;19.27;100.00;100125.78;7391738;19;20015;-56
2022/09/11 08:31:25;;;;;;;2.63;1.27;;;;;;;19.40;100.00;100128.75;7391522;19;20113;-56
2022/09/11 08:33:54;;;;;;;7.68;1.75;;;;;;;19.48;100.00;100129.69;7388066;19;20109;-56
2022/09/11 08:36:21;;;;;;;4.72;1.88;;;;;;;19.65;100.00;100121.78;7389489;19;20014;-56
2022/09/11 08:38:48;;;;;;;3.40;1.15;;;;;;;19.77;100.00;100132.94;7386274;19;20018;-56
2022/09/11 08:41:49;;;;;;;6.30;1.92;;;;;;;19.87;100.00;100131.28;7391428;19;20022;-56
2022/09/11 08:44:29;;;;;;;3.15;1.20;;;;;;;19.93;100.00;100129.13;7389047;19;20466;-56
2022/09/11 08:47:44;;;;;;;5.85;1.25;;;;;;;20.12;100.00;100127.09;7387013;19;20340;-56
2022/09/11 08:50:19;;;;;;;3.65;1.00;;;;;;;19.90;100.00;100122.50;7386914;19;20054;-56
2022/09/11 08:52:47;;;;;;;2.38;1.05;;;;;;;19.72;100.00;100123.22;7387359;19;20566;-56
2022/09/11 08:55:23;;;;;;;2.50;1.23;;;;;;;19.58;100.00;100122.38;7389950;19;20006;-56
2022/09/11 08:58:13;;;;;;;3.33;0.60;;;;;;;19.74;100.00;100122.69;7387265;19;20086;-56
2022/09/11 09:00:46;;;;;;;3.67;0.85;;;;;;;19.71;100.00;100118.13;7391173;19;20011;-56
2022/09/11 09:03:41;;;;;;;10.43;1.73;;;;;;;19.68;100.00;100119.94;7386542;19;20018;-56
2022/09/11 09:06:43;;;;;;;1.15;0.70;;;;;;;20.05;100.00;100119.22;7389010;19;20023;-56
2022/09/11 09:09:15;;;;;;;4.35;1.38;;;;;;;20.00;100.00;100122.88;7386279;19;20014;-55
2022/09/11 09:11:49;;;;;;;5.93;0.93;;;;;;;19.94;100.00;100125.03;7392816;19;20337;-56
2022/09/11 09:14:31;;;;;;;10.23;1.02;;;;;;;20.09;100.00;100128.16;7395036;19;20011;-55
2022/09/11 09:17:07;;;;;;;4.20;0.88;;;;;;;20.11;100.00;100126.31;7393819;19;20367;-55
2022/09/11 09:19:43;;;;;;;4.30;1.08;;;;;;;20.28;100.00;100120.44;7392038;19;20020;-55
2022/09/11 09:22:19;;;;;;;7.45;1.40;;;;;;;20.66;100.00;100119.09;7393681;19;20011;-56
2022/09/11 09:24:59;;;;;;;3.20;0.80;;;;;;;20.84;100.00;100117.50;7395769;19;20030;-56
2022/09/11 09:27:44;;;;;;;3.22;0.82;;;;;;;21.05;100.00;100119.22;7393489;19;20023;-56
2022/09/11 09:30:17;;;;;;;4.03;1.85;;;;;;;21.27;100.00;100118.03;7395647;19;20015;-56
2022/09/11 09:32:54;;;;;;;3.15;1.10;;;;;;;21.29;100.00;100121.09;7393283;19;20038;-56
2022/09/11 09:35:42;;;;;;;3.97;1.35;;;;;;;21.27;100.00;100120.88;7396099;19;20027;-56
2022/09/11 09:38:15;;;;;;;2.70;1.10;;;;;;;21.28;100.00;100124.47;7392923;19;20017;-56
2022/09/11 09:40:58;;;;;;;7.57;1.58;;;;;;;21.30;100.00;100116.19;7396239;19;20021;-56
2022/09/11 09:43:46;;;;;;;7.63;1.33;;;;;;;21.29;100.00;100126.75;7394356;19;20013;-56
2022/09/11 09:46:18;;;;;;;3.90;1.38;;;;;;;21.27;100.00;100115.22;7392713;19;20014;-56
2022/09/11 09:48:44;;;;;;;8.38;2.58;;;;;;;21.33;100.00;100126.47;7390909;19;20396;-56
2022/09/11 09:51:12;;;;;;;10.82;1.63;;;;;;;21.46;100.00;100126.47;7392682;19;20605;-56
2022/09/11 09:53:47;;;;;;;3.97;1.65;;;;;;;21.49;100.00;100117.63;7394948;19;20014;-56
2022/09/11 09:56:16;;;;;;;5.78;2.00;;;;;;;21.40;100.00;100118.06;7394949;19;20025;-56
2022/09/11 09:58:53;;;;;;;7.05;2.17;;;;;;;21.36;100.00;100114.03;7393602;19;20059;-56
2022/09/11 10:01:38;;;;;;;9.02;1.23;;;;;;;21.40;100.00;100108.78;7394664;19;20010;-56
2022/09/11 10:04:12;;;;;;;5.53;1.80;;;;;;;21.43;100.00;100104.88;7395051;19;20046;-57
2022/09/11 10:06:38;;;;;;;4.60;1.42;;;;;;;21.59;100.00;100095.28;7394488;19;20030;-57
2022/09/11 10:09:04;;;;;;;11.85;1.88;;;;;;;21.66;100.00;100103.88;7394245;19;20047;-57
2022/09/11 10:11:31;;;;;;;7.18;1.52;;;;;;;21.72;100.00;100096.03;7398690;19;20025;-57
2022/09/11 10:13:58;;;;;;;3.45;1.50;;;;;;;21.79;100.00;100095.38;7392968;19;20003;-57
2022/09/11 10:16:26;;;;;;;1.33;0.98;;;;;;;21.76;100.00;100095.72;7393228;19;20014;-56
2022/09/11 10:18:54;;;;;;;6.00;1.98;;;;;;;21.81;100.00;100101.25;7393419;19;20527;-56
2022/09/11 10:21:28;;;;;;;5.90;1.48;;;;;;;22.01;100.00;100087.72;7393579;19;20015;-56
2022/09/11 10:24:15;;;;;;;4.18;1.75;;;;;;;22.10;100.00;100093.69;7396130;19;20038;-56
2022/09/11 10:26:48;;;;;;;5.32;1.77;;;;;;;22.15;100.00;100092.81;7392532;19;20007;-57
2022/09/11 10:29:17;;;;;;;5.03;1.30;;;;;;;22.03;100.00;100085.84;7393658;19;20044;-56
2022/09/11 10:31:50;;;;;;;5.40;1.05;;;;;;;21.94;100.00;100083.47;7394168;19;20018;-56
2022/09/11 10:34:19;;;;;;;4.53;1.25;;;;;;;21.84;100.00;100086.00;7394522;19;20454;-56
2022/09/11 10:36:51;;;;;;;4.90;1.45;;;;;;;22.13;100.00;100080.50;7393536;19;20028;-56
2022/09/11 10:39:19;;;;;;;4.40;1.02;;;;;;;22.14;100.00;100084.84;7391067;19;20010;-56
2022/09/11 10:41:53;;;;;;;2.80;1.40;;;;;;;22.19;100.00;100087.56;7392609;19;20013;-56
2022/09/11 10:44:21;;;;;;;3.97;1.33;;;;;;;22.37;100.00;100092.28;7392966;19;20465;-56
2022/09/11 10:47:14;;;;;;;6.45;1.50;;;;;;;22.47;100.00;100092.56;7393039;19;20022;-56
2022/09/11 10:49:41;;;;;;;7.68;0.80;;;;;;;22.55;100.00;100082.81;7392686;19;20018;-56
2022/09/11 10:52:07;;;;;;;4.40;1.98;;;;;;;22.54;100.00;100084.13;7392570;19;20041;-56
2022/09/11 10:54:36;;;;;;;8.52;2.10;;;;;;;22.69;100.00;100094.13;7394243;19;20034;-56
2022/09/11 10:57:26;;;;;;;10.00;1.42;;;;;;;22.58;100.00;100089.47;7392750;19;20148;-56
2022/09/11 11:00:24;;;;;;;2.58;1.52;;;;;;;22.52;100.00;100092.44;7389568;19;20561;-56
2022/09/11 11:02:57;;;;;;;2.75;1.13;;;;;;;22.53;100.00;100091.13;7391397;19;20056;-56
2022/09/11 11:05:40;;;;;;;6.07;1.40;;;;;;;22.52;100.00;100086.00;7396158;19;20017;-56
2022/09/11 11:08:31;;;;;;;12.52;1.88;;;;;;;22.24;100.00;100083.81;7392855;19;20562;-56
2022/09/11 11:11:02;;;;;;;7.60;1.92;;;;;;;22.37;100.00;100080.19;7395188;19;20070;-57
2022/09/11 11:14:06;;;;;;;1.67;0.95;;;;;;;22.56;100.00;100075.84;7391125;19;20010;-56
2022/09/11 11:16:38;;;;;;;3.55;1.67;;;;;;;22.51;100.00;100087.31;7391437;19;20026;-56
2022/09/11 11:19:33;;;;;;;3.50;1.02;;;;;;;22.44;100.00;100083.09;7390708;19;20015;-56
2022/09/11 11:22:21;;;;;;;4.38;1.77;;;;;;;22.17;100.00;100078.06;7391309;19;20025;-56
2022/09/11 11:24:59;;;;;;;10.93;2.70;;;;;;;22.28;100.00;100072.91;7393298;19;20014;-56
2022/09/11 11:27:43;;;;;;;6.68;1.60;;;;;;;22.30;100.00;100080.84;7390441;19;20424;-56
2022/09/11 11:30:16;;;;;;;2.88;1.60;;;;;;;22.22;100.00;100077.19;7391602;19;20043;-57
2022/09/11 11:32:57;;;;;;;2.28;1.00;;;;;;;22.00;100.00;100075.63;7390669;19;20014;-56
2022/09/11 11:35:43;;;;;;;6.28;2.05;;;;;;;21.98;100.00;100072.56;7395139;19;20011;-56
2022/09/11 11:38:19;;;;;;;4.53;2.00;;;;;;;22.00;100.00;100074.84;7389402;19;20668;-56
2022/09/11 11:40:48;;;;;;;5.13;2.20;;;;;;;22.00;100.00;100074.84;7393507;19;20344;-57
2022/09/11 11:43:20;;;;;;;3.67;1.55;;;;;;;21.76;100.00;100073.78;7388836;19;20458;-56